createdAt,value
2023-04-23T00:00:27.116Z,14.35
2023-04-23T00:02:58.416Z,14.40
2023-04-23T00:05:29.714Z,14.41
2023-04-23T00:08:02.225Z,14.41
2023-04-23T00:10:30.972Z,14.40
2023-04-23T00:12:59.663Z,14.43
2023-04-23T00:15:28.724Z,14.40
2023-04-23T00:17:56.989Z,14.38
2023-04-23T00:20:25.448Z,14.35
2023-04-23T00:22:55.975Z,14.36
2023-04-23T00:25:25.289Z,14.36
2023-04-23T00:27:59.123Z,14.34
2023-04-23T00:30:30.869Z,14.34
2023-04-23T00:33:03.301Z,14.35
2023-04-23T00:35:32.400Z,14.34
2023-04-23T00:38:04.441Z,14.37
2023-04-23T00:40:36.228Z,14.41
2023-04-23T00:43:11.347Z,14.42
2023-04-23T00:45:55.880Z,14.44
2023-04-23T00:48:28.806Z,14.41
2023-04-23T00:51:04.443Z,14.36
2023-04-23T00:53:39.581Z,14.38
2023-04-23T00:56:09.921Z,14.36
2023-04-23T00:58:43.072Z,14.37
2023-04-23T01:01:14.342Z,14.37
2023-04-23T01:03:44.794Z,14.34
2023-04-23T01:06:14.251Z,14.28
2023-04-23T01:08:45.409Z,14.25
2023-04-23T01:11:16.456Z,14.23
2023-04-23T01:13:45.979Z,14.20
2023-04-23T01:16:15.031Z,14.14
2023-04-23T01:18:44.764Z,14.11
2023-04-23T01:21:13.844Z,14.10
2023-04-23T01:23:44.429Z,14.05
2023-04-23T01:26:12.826Z,14.03
2023-04-23T01:28:41.667Z,14.00
2023-04-23T01:31:10.986Z,13.97
2023-04-23T01:33:44.644Z,13.91
2023-04-23T01:36:13.491Z,13.93
2023-04-23T01:38:43.464Z,13.90
2023-04-23T01:41:13.828Z,13.87
2023-04-23T01:43:43.139Z,13.81
2023-04-23T01:46:12.217Z,13.76
2023-04-23T01:48:40.824Z,13.73
2023-04-23T01:51:10.461Z,13.72
2023-04-23T01:53:38.585Z,13.69
2023-04-23T01:56:10.131Z,13.70
2023-04-23T01:58:38.128Z,13.68
2023-04-23T02:01:06.997Z,13.65
2023-04-23T02:03:35.916Z,13.64
2023-04-23T02:06:05.244Z,13.57
2023-04-23T02:08:33.469Z,13.55
2023-04-23T02:11:01.784Z,13.48
2023-04-23T02:13:34.824Z,13.47
2023-04-23T02:16:03.033Z,13.46
2023-04-23T02:18:31.148Z,13.44
2023-04-23T02:20:59.972Z,13.45
2023-04-23T02:23:28.325Z,13.45
2023-04-23T02:25:56.468Z,13.46
2023-04-23T02:28:24.648Z,13.44
2023-04-23T02:30:54.200Z,13.47
2023-04-23T02:33:22.949Z,13.43
2023-04-23T02:35:51.860Z,13.45
2023-04-23T02:38:20.076Z,13.47
2023-04-23T02:40:48.224Z,13.50
2023-04-23T02:43:20.158Z,13.53
2023-04-23T02:45:48.378Z,13.53
2023-04-23T02:48:21.561Z,13.50
2023-04-23T02:50:51.063Z,13.52
2023-04-23T02:53:27.328Z,13.51
2023-04-23T02:55:55.700Z,13.49
2023-04-23T02:58:23.989Z,13.48
2023-04-23T03:00:52.252Z,13.47
2023-04-23T03:03:21.970Z,13.44
2023-04-23T03:05:50.416Z,13.44
2023-04-23T03:08:18.570Z,13.40
2023-04-23T03:10:46.894Z,13.41
2023-04-23T03:13:15.287Z,13.40
2023-04-23T03:15:43.710Z,13.36
2023-04-23T03:18:12.165Z,13.35
2023-04-23T03:20:41.622Z,13.30
2023-04-23T03:23:09.827Z,13.22
2023-04-23T03:25:38.281Z,13.16
2023-04-23T03:28:06.455Z,13.14
2023-04-23T03:30:37.678Z,13.09
2023-04-23T03:33:05.896Z,13.07
2023-04-23T03:35:34.112Z,13.09
2023-04-23T03:38:03.665Z,13.07
2023-04-23T03:40:36.499Z,13.03
2023-04-23T03:43:06.720Z,13.03
2023-04-23T03:45:34.853Z,13.04
2023-04-23T03:48:03.242Z,13.02
2023-04-23T03:50:34.486Z,13.04
2023-04-23T03:53:04.273Z,13.02
2023-04-23T03:55:32.670Z,13.04
2023-04-23T03:58:01.812Z,13.02
2023-04-23T04:00:30.124Z,13.02
2023-04-23T04:03:00.390Z,12.96
2023-04-23T04:05:28.837Z,12.95
2023-04-23T04:07:59.910Z,12.90
2023-04-23T04:10:30.229Z,12.89
2023-04-23T04:13:01.810Z,12.87
2023-04-23T04:15:29.988Z,12.87
2023-04-23T04:17:58.132Z,12.83
2023-04-23T04:20:28.762Z,12.83
2023-04-23T04:22:57.616Z,12.85
2023-04-23T04:25:29.043Z,12.88
2023-04-23T04:27:58.975Z,12.86
2023-04-23T04:30:27.574Z,12.88
2023-04-23T04:32:56.108Z,12.88
2023-04-23T04:35:25.364Z,12.91
2023-04-23T04:37:54.932Z,12.90
2023-04-23T04:40:24.150Z,12.89
2023-04-23T04:42:53.067Z,12.91
2023-04-23T04:45:24.244Z,12.93
2023-04-23T04:47:52.579Z,12.95
2023-04-23T04:50:20.908Z,12.94
2023-04-23T04:52:49.026Z,12.95
2023-04-23T04:55:18.051Z,12.94
2023-04-23T04:57:46.259Z,12.95
2023-04-23T05:00:28.575Z,13.00
2023-04-23T05:02:58.496Z,13.00
2023-04-23T05:05:28.247Z,12.98
2023-04-23T05:07:59.309Z,12.99
2023-04-23T05:10:27.380Z,13.00
2023-04-23T05:12:55.384Z,13.01
2023-04-23T05:15:25.159Z,13.02
2023-04-23T05:17:59.214Z,12.99
2023-04-23T05:20:27.536Z,12.97
2023-04-23T05:22:55.843Z,12.95
2023-04-23T05:25:23.895Z,12.95
2023-04-23T05:27:53.534Z,12.93
2023-04-23T05:30:21.643Z,12.90
2023-04-23T05:32:51.694Z,12.87
2023-04-23T05:35:19.739Z,12.84
2023-04-23T05:37:47.805Z,12.81
2023-04-23T05:40:16.036Z,12.81
2023-04-23T05:42:44.200Z,12.77
2023-04-23T05:45:13.140Z,12.75
2023-04-23T05:47:41.173Z,12.76
2023-04-23T05:50:12.651Z,12.78
2023-04-23T05:52:40.670Z,12.83
2023-04-23T05:55:09.846Z,12.88
2023-04-23T05:57:38.895Z,12.92
2023-04-23T06:00:09.880Z,12.96
2023-04-23T06:02:38.229Z,13.04
2023-04-23T06:05:07.626Z,13.07
2023-04-23T06:07:37.547Z,13.12
2023-04-23T06:10:12.790Z,13.18
2023-04-23T06:12:42.414Z,13.23
2023-04-23T06:15:11.571Z,13.26
2023-04-23T06:17:39.711Z,13.33
2023-04-23T06:20:10.896Z,13.34
2023-04-23T06:22:40.566Z,13.37
2023-04-23T06:25:09.628Z,13.38
2023-04-23T06:27:37.883Z,13.38
2023-04-23T06:30:07.103Z,13.42
2023-04-23T06:32:37.136Z,13.47
2023-04-23T06:35:06.392Z,13.53
2023-04-23T06:37:34.885Z,13.57
2023-04-23T06:40:05.070Z,13.60
2023-04-23T06:42:33.616Z,13.62
2023-04-23T06:45:06.289Z,13.64
2023-04-23T06:47:34.766Z,13.67
2023-04-23T06:50:02.984Z,13.68
2023-04-23T06:52:31.154Z,13.70
2023-04-23T06:54:59.205Z,13.69
2023-04-23T06:57:30.252Z,13.73
2023-04-23T06:59:58.371Z,13.74
2023-04-23T07:02:27.187Z,13.74
2023-04-23T07:04:55.409Z,13.78
2023-04-23T07:07:25.023Z,13.78
2023-04-23T07:09:53.127Z,13.81
2023-04-23T07:12:21.298Z,13.86
2023-04-23T07:14:53.675Z,13.93
2023-04-23T07:17:22.119Z,14.01
2023-04-23T07:19:50.809Z,14.08
2023-04-23T07:22:19.109Z,14.21
2023-04-23T07:24:47.811Z,14.34
2023-04-23T07:27:16.129Z,14.48
2023-04-23T07:29:45.368Z,14.63
2023-04-23T07:32:16.678Z,14.72
2023-04-23T07:34:50.263Z,14.82
2023-04-23T07:37:18.362Z,14.85
2023-04-23T07:39:49.199Z,14.93
2023-04-23T07:42:17.644Z,14.98
2023-04-23T07:44:46.389Z,15.07
2023-04-23T07:47:19.881Z,15.20
2023-04-23T07:49:50.409Z,15.31
2023-04-23T07:52:18.830Z,15.45
2023-04-23T07:54:47.412Z,15.57
2023-04-23T07:57:16.669Z,15.67
2023-04-23T07:59:45.001Z,15.80
2023-04-23T08:02:18.849Z,15.92
2023-04-23T08:04:47.147Z,16.02
2023-04-23T08:07:15.395Z,16.10
2023-04-23T08:09:43.959Z,16.14
2023-04-23T08:12:18.443Z,16.21
2023-04-23T08:14:47.541Z,16.34
2023-04-23T08:17:15.495Z,16.39
2023-04-23T08:19:44.979Z,16.45
2023-04-23T08:22:13.448Z,16.56
2023-04-23T08:24:41.704Z,16.71
2023-04-23T08:27:10.164Z,16.89
2023-04-23T08:29:38.510Z,17.04
2023-04-23T08:32:06.944Z,17.17
2023-04-23T08:34:36.455Z,17.31
2023-04-23T08:37:08.540Z,17.38
2023-04-23T08:39:40.807Z,17.45
2023-04-23T08:42:16.181Z,17.58
2023-04-23T08:44:44.229Z,17.57
2023-04-23T08:47:13.601Z,17.53
2023-04-23T08:49:43.968Z,17.47
2023-04-23T08:52:18.967Z,17.42
2023-04-23T08:54:50.965Z,17.30
2023-04-23T08:57:19.448Z,17.24
2023-04-23T08:59:48.809Z,17.21
2023-04-23T09:02:18.682Z,17.13
2023-04-23T09:04:50.759Z,16.95
2023-04-23T09:07:21.994Z,16.66
2023-04-23T09:09:50.198Z,16.45
2023-04-23T09:12:18.246Z,16.35
2023-04-23T09:14:46.400Z,16.35
2023-04-23T09:17:14.706Z,16.32
2023-04-23T09:19:44.278Z,16.30
2023-04-23T09:22:12.480Z,16.33
2023-04-23T09:24:44.577Z,16.37
2023-04-23T09:27:12.838Z,16.37
2023-04-23T09:29:41.817Z,16.40
2023-04-23T09:32:11.371Z,16.48
2023-04-23T09:34:39.591Z,16.54
2023-04-23T09:37:11.169Z,16.50
2023-04-23T09:39:41.663Z,16.41
2023-04-23T09:42:13.624Z,16.30
2023-04-23T09:44:41.641Z,16.23
2023-04-23T09:47:12.285Z,16.21
2023-04-23T09:49:50.775Z,16.16
2023-04-23T09:52:21.231Z,16.12
2023-04-23T09:54:49.939Z,16.13
2023-04-23T09:57:19.692Z,16.26
2023-04-23T09:59:52.888Z,16.41
2023-04-23T10:02:33.614Z,16.51
2023-04-23T10:05:10.436Z,16.55
2023-04-23T10:07:50.589Z,16.54
2023-04-23T10:10:20.385Z,16.50
2023-04-23T10:12:54.988Z,16.36
2023-04-23T10:15:24.954Z,16.33
2023-04-23T10:17:53.948Z,16.36
2023-04-23T10:20:23.854Z,16.31
2023-04-23T10:22:55.229Z,16.21
2023-04-23T10:25:26.475Z,16.08
2023-04-23T10:27:57.100Z,16.06
2023-04-23T10:30:25.463Z,16.01
2023-04-23T10:32:55.566Z,16.01
2023-04-23T10:35:23.910Z,15.94
2023-04-23T10:37:52.354Z,15.92
2023-04-23T10:40:25.465Z,15.80
2023-04-23T10:42:55.956Z,15.68
2023-04-23T10:45:25.636Z,15.57
2023-04-23T10:47:56.577Z,15.47
2023-04-23T10:50:26.702Z,15.41
2023-04-23T10:52:57.359Z,15.24
2023-04-23T10:55:28.280Z,15.09
2023-04-23T10:58:08.366Z,14.99
2023-04-23T11:00:47.829Z,14.96
2023-04-23T11:03:32.015Z,14.94
2023-04-23T11:06:03.493Z,14.92
2023-04-23T11:08:33.759Z,15.00
2023-04-23T11:11:09.341Z,15.08
2023-04-23T11:13:53.604Z,15.18
2023-04-23T11:16:25.858Z,15.27
2023-04-23T11:19:05.445Z,15.42
2023-04-23T11:22:00.104Z,15.59
2023-04-23T11:24:37.699Z,15.69
2023-04-23T11:27:08.092Z,15.81
2023-04-23T11:32:10.960Z,16.14
2023-04-23T11:34:41.292Z,16.28
2023-04-23T11:37:12.304Z,16.44
2023-04-23T11:39:42.406Z,16.62
2023-04-23T11:42:30.201Z,16.79
2023-04-23T11:55:32.521Z,17.32
2023-04-23T11:58:42.497Z,17.40
2023-04-23T12:01:12.779Z,17.47
2023-04-23T12:03:41.170Z,17.41
2023-04-23T12:06:09.461Z,17.39
2023-04-23T12:08:43.425Z,17.34
2023-04-23T12:11:13.694Z,17.35
2023-04-23T12:13:43.142Z,17.43
2023-04-23T12:18:55.253Z,17.59
2023-04-23T12:21:25.526Z,17.73
2023-04-23T12:23:56.276Z,17.86
2023-04-23T12:26:25.148Z,17.99
2023-04-23T12:28:55.605Z,18.13
2023-04-23T12:31:25.748Z,18.37
2023-04-23T12:34:06.719Z,18.60
2023-04-23T12:36:41.319Z,18.75
2023-04-23T12:39:29.494Z,18.72
2023-04-23T12:42:02.600Z,18.70
2023-04-23T12:44:31.985Z,18.69
2023-04-23T12:47:03.535Z,18.72
2023-04-23T12:49:32.898Z,18.69
2023-04-23T12:52:02.475Z,18.59
2023-04-23T12:54:34.129Z,18.48
2023-04-23T12:57:03.272Z,18.31
2023-04-23T12:59:31.837Z,18.19
2023-04-23T13:02:02.504Z,18.01
2023-04-23T13:04:32.878Z,18.00
2023-04-23T13:07:01.079Z,18.00
2023-04-23T13:09:31.939Z,18.00
2023-04-23T13:12:00.871Z,18.00
2023-04-23T13:14:32.457Z,17.87
2023-04-23T13:17:01.087Z,17.72
2023-04-23T13:19:29.352Z,17.68
2023-04-23T13:21:57.496Z,17.63
2023-04-23T13:24:25.894Z,17.81
2023-04-23T13:26:57.502Z,18.05
2023-04-23T13:29:27.444Z,17.85
2023-04-23T13:31:56.556Z,18.36
2023-04-23T13:34:25.191Z,18.19
2023-04-23T13:36:53.673Z,18.20
2023-04-23T13:39:23.933Z,18.36
2023-04-23T13:42:06.254Z,19.08
2023-04-23T13:44:38.294Z,19.89
2023-04-23T13:47:06.743Z,20.56
2023-04-23T13:49:35.225Z,21.03
2023-04-23T13:52:06.990Z,21.23
2023-04-23T13:54:35.809Z,21.30
2023-04-23T13:57:04.449Z,21.47
2023-04-23T13:59:33.136Z,20.76
2023-04-23T14:02:02.841Z,20.79
2023-04-23T14:04:30.999Z,20.66
2023-04-23T14:07:02.125Z,20.79
2023-04-23T14:09:30.601Z,20.30
2023-04-23T14:11:58.621Z,20.56
2023-04-23T14:14:27.495Z,20.58
2023-04-23T14:16:55.915Z,20.59
2023-04-23T14:19:25.942Z,20.22
2023-04-23T14:21:54.202Z,19.85
2023-04-23T14:24:24.754Z,19.41
2023-04-23T14:26:53.002Z,19.71
2023-04-23T14:29:32.613Z,20.21
2023-04-23T14:32:03.984Z,20.47
2023-04-23T14:34:35.073Z,20.50
2023-04-23T14:37:03.216Z,20.68
2023-04-23T14:39:31.604Z,20.94
2023-04-23T14:42:00.015Z,20.95
2023-04-23T14:44:37.369Z,21.09
2023-04-23T14:47:08.272Z,21.42
2023-04-23T14:49:37.771Z,21.76
2023-04-23T14:54:48.768Z,22.07
2023-04-23T14:57:16.820Z,21.85
2023-04-23T14:59:44.990Z,21.40
2023-04-23T15:02:13.160Z,21.15
2023-04-23T15:04:43.424Z,20.98
2023-04-23T15:07:11.783Z,20.83
2023-04-23T15:09:39.851Z,20.93
2023-04-23T15:12:28.886Z,20.81
2023-04-23T15:14:57.418Z,20.44
2023-04-23T15:17:28.461Z,20.22
2023-04-23T15:20:00.500Z,20.49
2023-04-23T15:22:31.460Z,20.48
2023-04-23T15:24:59.542Z,20.26
2023-04-23T15:27:40.147Z,20.10
2023-04-23T15:30:14.318Z,20.23
2023-04-23T15:32:43.460Z,20.40
2023-04-23T15:35:33.300Z,20.19
2023-04-23T15:44:49.014Z,19.63
2023-04-23T15:58:42.723Z,20.22
2023-04-23T16:01:20.080Z,20.70
2023-04-23T16:04:07.876Z,21.15
2023-04-23T16:06:52.354Z,21.29
2023-04-23T16:09:22.073Z,21.09
2023-04-23T16:11:50.329Z,20.52
2023-04-23T16:14:19.904Z,19.77
2023-04-23T16:16:48.553Z,19.23
2023-04-23T16:19:18.762Z,19.08
2023-04-23T16:21:47.310Z,19.07
2023-04-23T16:24:17.530Z,19.60
2023-04-23T16:26:45.745Z,20.54
2023-04-23T16:29:26.680Z,21.18
2023-04-23T16:31:57.319Z,21.74
2023-04-23T16:34:28.155Z,22.28
2023-04-23T16:37:27.764Z,22.63
2023-04-23T16:40:09.130Z,22.88
2023-04-23T16:42:58.289Z,23.05
2023-04-23T16:45:29.129Z,23.34
2023-04-23T16:50:49.165Z,23.59
2023-04-23T16:53:27.560Z,23.35
2023-04-23T16:56:20.686Z,22.78
2023-04-23T17:01:34.919Z,22.39
2023-04-23T17:04:10.481Z,22.45
2023-04-23T17:06:43.726Z,22.75
2023-04-23T17:09:12.344Z,23.01
2023-04-23T17:11:45.971Z,23.18
2023-04-23T17:14:14.123Z,23.26
2023-04-23T17:19:28.086Z,23.20
2023-04-23T17:21:58.093Z,23.05
2023-04-23T17:24:29.918Z,22.59
2023-04-23T18:18:08.018Z,21.24
2023-04-23T18:51:40.761Z,20.23
2023-04-23T19:10:44.488Z,17.38
2023-04-23T19:13:15.580Z,17.07
2023-04-23T19:15:43.774Z,16.77
2023-04-23T19:18:13.157Z,16.45
2023-04-23T19:20:44.573Z,16.20
2023-04-23T19:23:12.910Z,16.00
2023-04-23T19:25:42.887Z,15.82
2023-04-23T19:28:14.043Z,15.66
2023-04-23T19:30:42.520Z,15.49
2023-04-23T19:33:12.501Z,15.36
2023-04-23T19:35:41.685Z,15.26
2023-04-23T19:38:11.231Z,15.16
2023-04-23T19:40:41.742Z,15.04
2023-04-23T19:43:12.872Z,14.97
2023-04-23T19:45:46.964Z,14.87
2023-04-23T19:48:17.117Z,14.78
2023-04-23T19:50:45.769Z,14.71
2023-04-23T19:53:14.943Z,14.64
2023-04-23T19:55:47.111Z,14.67
2023-04-23T19:58:19.401Z,14.51
2023-04-23T20:00:47.820Z,14.51
2023-04-23T20:03:16.489Z,14.49
2023-04-23T20:05:46.173Z,14.48
2023-04-23T20:08:25.956Z,14.47
2023-04-23T20:10:54.807Z,14.38
2023-04-23T20:13:26.137Z,14.35
2023-04-23T20:15:57.269Z,14.32
2023-04-23T20:18:29.271Z,14.29
2023-04-23T20:20:57.350Z,14.25
2023-04-23T20:23:26.522Z,14.22
2023-04-23T20:26:02.752Z,14.20
2023-04-23T20:28:32.651Z,14.18
2023-04-23T20:31:00.893Z,14.15
2023-04-23T20:33:33.323Z,14.15
2023-04-23T20:36:04.120Z,14.13
2023-04-23T20:38:33.297Z,14.13
2023-04-23T20:41:11.131Z,14.08
2023-04-23T20:43:40.757Z,14.04
2023-04-23T20:46:10.585Z,14.04
2023-04-23T20:48:39.545Z,13.98
2023-04-23T20:51:08.145Z,14.00
2023-04-23T20:53:36.398Z,13.99
2023-04-23T20:56:04.899Z,13.96
2023-04-23T20:58:32.944Z,13.98
2023-04-23T21:01:08.916Z,13.97
2023-04-23T21:03:38.096Z,13.96
2023-04-23T21:06:12.697Z,13.96
2023-04-23T21:08:43.976Z,13.90
2023-04-23T21:11:16.467Z,13.90
2023-04-23T21:13:46.062Z,13.88
2023-04-23T21:16:15.799Z,13.83
2023-04-23T21:18:51.539Z,13.88
2023-04-23T21:21:19.902Z,13.83
2023-04-23T21:23:50.665Z,13.76
2023-04-23T21:26:21.846Z,13.74
2023-04-23T21:29:13.177Z,13.73
2023-04-23T21:32:16.752Z,13.76
2023-04-23T21:34:51.837Z,13.74
2023-04-23T21:40:19.078Z,13.73
2023-04-23T21:43:07.396Z,13.77
2023-04-23T21:45:37.585Z,13.73
2023-04-23T21:48:14.226Z,13.74
2023-04-23T21:50:56.451Z,13.72
2023-04-23T21:53:29.654Z,13.71
2023-04-23T21:55:59.345Z,13.68
2023-04-23T21:58:27.973Z,13.66
2023-04-23T22:00:57.159Z,13.65
2023-04-23T22:03:35.347Z,13.68
2023-04-23T22:06:11.589Z,13.71
2023-04-23T22:09:02.547Z,13.66
2023-04-23T22:12:00.842Z,13.62
2023-04-23T22:14:38.906Z,13.69
2023-04-23T22:17:08.057Z,13.63
2023-04-23T22:19:59.372Z,13.61
2023-04-23T22:22:34.316Z,13.62
2023-04-23T22:25:12.898Z,13.65
2023-04-23T22:27:42.593Z,13.67
2023-04-23T22:30:14.764Z,13.67
2023-04-23T22:32:42.975Z,13.69
2023-04-23T22:35:18.724Z,13.67
2023-04-23T22:37:47.460Z,13.67
2023-04-23T22:40:16.835Z,13.65
2023-04-23T22:42:45.890Z,13.67
2023-04-23T22:45:14.860Z,13.68
2023-04-23T22:47:43.806Z,13.71
2023-04-23T22:50:14.692Z,13.70
2023-04-23T22:52:43.853Z,13.77
2023-04-23T22:55:12.984Z,13.77
2023-04-23T22:57:43.103Z,13.78
2023-04-23T23:00:13.343Z,13.86
2023-04-23T23:02:41.686Z,13.86
2023-04-23T23:05:11.594Z,13.84
2023-04-23T23:07:48.658Z,13.83
2023-04-23T23:10:16.812Z,13.84
2023-04-23T23:12:45.492Z,13.83
2023-04-23T23:15:14.017Z,13.80
2023-04-23T23:17:43.988Z,13.80
2023-04-23T23:20:20.387Z,13.79
2023-04-23T23:22:50.271Z,13.83
2023-04-23T23:25:18.725Z,13.85
2023-04-23T23:27:46.923Z,13.90
2023-04-23T23:30:16.058Z,13.94
2023-04-23T23:32:45.291Z,13.96
2023-04-23T23:35:14.910Z,13.99
2023-04-23T23:37:43.322Z,14.04
2023-04-23T23:40:13.905Z,14.07
2023-04-23T23:42:42.622Z,14.09
2023-04-23T23:45:11.863Z,14.08
2023-04-23T23:47:40.505Z,14.06
2023-04-23T23:50:10.669Z,14.06
2023-04-23T23:52:39.271Z,14.04
2023-04-23T23:55:08.343Z,14.00
2023-04-23T23:57:40.398Z,13.95
